createdAt,value
2022-08-21T00:06:49.451Z,14.40
2022-08-21T00:16:57.292Z,13.60
2022-08-21T00:27:06.704Z,15.40
2022-08-21T00:37:13.606Z,14.40
2022-08-21T00:47:20.830Z,15.70
2022-08-21T00:57:34.805Z,14.90
2022-08-21T01:07:41.374Z,13.70
2022-08-21T01:17:47.705Z,14.30
2022-08-21T01:27:54.102Z,13.30
2022-08-21T01:38:00.672Z,13.90
2022-08-21T01:48:07.001Z,14.90
2022-08-21T01:58:13.350Z,15.30
2022-08-21T02:08:19.650Z,13.30
2022-08-21T02:18:27.126Z,13.60
2022-08-21T02:28:33.735Z,15.10
2022-08-21T02:38:41.896Z,13.30
2022-08-21T02:48:48.657Z,14.50
2022-08-21T02:58:55.057Z,14.00
2022-08-21T03:09:01.583Z,13.30
2022-08-21T03:19:07.885Z,14.60
2022-08-21T03:29:14.234Z,16.30
2022-08-21T03:39:20.879Z,12.40
2022-08-21T03:49:28.158Z,13.40
2022-08-21T03:59:34.674Z,12.90
2022-08-21T04:09:41.001Z,13.10
2022-08-21T04:19:53.094Z,11.60
2022-08-21T04:30:00.093Z,13.30
2022-08-21T04:40:07.880Z,12.40
2022-08-21T04:50:14.233Z,12.20
2022-08-21T05:00:20.856Z,14.40
2022-08-21T05:10:27.906Z,17.00
2022-08-21T05:20:36.549Z,13.90
2022-08-21T05:30:43.085Z,12.80
2022-08-21T05:40:49.494Z,14.50
2022-08-21T05:50:56.453Z,12.50
2022-08-21T06:01:04.786Z,14.40
2022-08-21T06:11:12.291Z,16.20
2022-08-21T06:21:18.684Z,17.70
2022-08-21T06:31:27.786Z,13.00
2022-08-21T06:41:39.030Z,8.90
2022-08-21T06:51:45.581Z,8.00
2022-08-21T07:01:52.001Z,11.00
2022-08-21T07:11:58.938Z,12.20
2022-08-21T07:22:05.241Z,9.70
2022-08-21T07:32:11.582Z,5.90
2022-08-21T07:42:18.297Z,9.80
2022-08-21T07:52:24.633Z,8.70
2022-08-21T08:02:37.694Z,6.00
2022-08-21T08:12:45.110Z,6.60
2022-08-21T08:22:51.954Z,6.90
2022-08-21T08:32:59.542Z,5.40
2022-08-21T08:43:07.506Z,4.30
2022-08-21T08:53:24.518Z,3.00
2022-08-21T09:03:31.082Z,3.70
2022-08-21T09:13:45.850Z,3.50
2022-08-21T09:24:04.866Z,3.00
2022-08-21T09:34:14.320Z,5.40
2022-08-21T09:44:31.253Z,3.70
2022-08-21T09:54:39.560Z,3.95
2022-08-21T10:04:52.252Z,2.40
2022-08-21T10:15:17.660Z,3.90
2022-08-21T10:25:30.846Z,3.10
2022-08-21T10:35:59.939Z,3.90
2022-08-21T10:46:20.587Z,4.60
2022-08-21T10:56:31.723Z,3.30
2022-08-21T11:06:39.821Z,4.50
2022-08-21T11:17:13.965Z,4.40
2022-08-21T11:27:58.727Z,6.60
2022-08-21T11:38:29.115Z,4.30
2022-08-21T11:48:44.454Z,7.70
2022-08-21T11:58:55.086Z,4.10
2022-08-21T12:09:08.639Z,3.60
2022-08-21T12:19:30.900Z,4.40
2022-08-21T12:29:41.034Z,3.60
2022-08-21T12:39:50.437Z,4.20
2022-08-21T13:00:51.283Z,4.50
2022-08-21T13:11:13.753Z,4.30
2022-08-21T13:21:22.552Z,2.90
2022-08-21T13:31:30.310Z,2.90
2022-08-21T13:41:38.917Z,4.70
2022-08-21T13:51:45.907Z,4.40
2022-08-21T14:02:01.326Z,5.80
2022-08-21T14:12:23.514Z,5.10
2022-08-21T14:22:49.829Z,4.70
2022-08-21T14:32:56.518Z,6.20
2022-08-21T14:43:02.856Z,4.20
2022-08-21T14:53:10.838Z,4.20
2022-08-21T15:03:17.772Z,4.10
2022-08-21T15:13:25.275Z,3.30
2022-08-21T15:23:31.616Z,4.40
2022-08-21T15:33:37.970Z,3.70
2022-08-21T15:43:50.617Z,3.30
2022-08-21T15:53:56.966Z,3.30
2022-08-21T16:04:04.594Z,4.20
2022-08-21T16:14:16.130Z,3.70
2022-08-21T16:24:22.576Z,5.20
2022-08-21T16:34:29.781Z,5.60
2022-08-21T16:44:37.288Z,7.20
2022-08-21T16:54:44.619Z,5.60
2022-08-21T17:04:50.939Z,5.90
2022-08-21T17:14:58.897Z,5.40
2022-08-21T17:25:05.527Z,5.00
2022-08-21T17:35:12.897Z,4.30
2022-08-21T17:45:20.994Z,4.80
2022-08-21T17:55:29.370Z,3.10
2022-08-21T18:05:36.434Z,3.50
2022-08-21T18:15:51.964Z,4.40
2022-08-21T18:25:59.756Z,2.70
2022-08-21T18:36:06.709Z,3.30
2022-08-21T18:46:13.121Z,3.10
2022-08-21T18:56:20.738Z,2.70
2022-08-21T19:06:26.897Z,2.95
2022-08-21T19:16:33.827Z,3.80
2022-08-21T19:26:40.343Z,3.70
2022-08-21T19:36:47.456Z,3.10
2022-08-21T19:46:56.751Z,3.80
2022-08-21T19:57:07.811Z,4.70
2022-08-21T20:07:14.360Z,2.50
2022-08-21T20:17:21.221Z,3.80
2022-08-21T20:27:28.608Z,2.40
2022-08-21T20:37:37.130Z,2.30
2022-08-21T20:47:43.676Z,2.50
2022-08-21T20:58:04.079Z,3.10
2022-08-21T21:08:15.544Z,2.40
2022-08-21T21:18:33.658Z,3.10
2022-08-21T21:29:17.057Z,3.30
2022-08-21T21:39:36.676Z,3.70
2022-08-21T21:49:57.959Z,4.20
2022-08-21T22:00:26.645Z,2.50
2022-08-21T22:10:49.946Z,3.60
2022-08-21T22:20:59.451Z,1.80
2022-08-21T22:31:18.132Z,1.90
2022-08-21T22:41:29.837Z,2.40
2022-08-21T22:51:38.772Z,1.80
2022-08-21T23:01:46.277Z,1.80
2022-08-21T23:12:01.759Z,1.80
2022-08-21T23:22:47.313Z,2.30
2022-08-21T23:33:12.425Z,3.30
2022-08-21T23:43:23.131Z,4.10
2022-08-21T23:53:41.763Z,2.30
